Hlavní strana
METAR-TAF:

METAR-TAF

Letiště :

Florø, Norsko

zeměpisná šířka: 61-35N, zeměpisná délka: 005-02E, výška: 0 m

Aktuální stav počasí

Zpráva byla vytvořena před 38 minutami, v 13:20 UTC
Severní vítr 12 kt, proměnlivý mezi severoseverozápadním a severoseverovýchodním
Teplota 6°C
Vlhkost vzduchu 52%
Tlak 1010 hPa
Viditelnost 10 km a více
Skoro jasno ve výšce 2000 ft, Cumulonimbus.
Skoro jasno ve výšce 4500 ft
přeháňky v blízkosti

METAR: ENFL 181320Z 36012KT 330V030 9999 VCSH FEW020CB FEW045 06/M03 Q1010

Čas: 14:58 (13:58 UTC)

Předpověď počasí

Zpráva byla vytvořena před 2 hodinami a 58 minutami, v 11:00 UTC
Předpověď platná od 18 v 12 UTC do 18 v 21 UTC
Severní vítr 15 kt
Viditelnost 10 km a více
Skoro jasno ve výšce 2000 ft, Vertikální cumulus.
Polojasno ve výšce 3500 ft
Změna
od 18 v 18 UTC do 18 v 21 UTC
vítr z různých směrů 6 kt

TAF: ENFL 181100Z 1812/1821 36015KT 9999 FEW020TCU SCT035 BECMG 1818/1821 VRB06KT

Stav a předpovědi počasí z více než 4 000 letišť (zprávy METAR a TAF).

Červené a žluté tečky na mapě představují dostupné meteorologické stanice.

Když kurzor umístíte na tečku, zobrazí se název stanice.

Pak kliknutím zobrazíte stav a předpověď počasí.

Chcete-li změnit mapu, kliknutím na zelené tlačítko se znaménkem +mapu přiblížíte, kliknutím na zelené tlačítko se znaménkem – mapu oddálíte a kliknutím na zelené šipky přejdete na sousední mapy.


METAR-TAF: